sensor_id;sensor_type;location;lat;lon;timestamp;pressure;altitude;pressure_sealevel;temperature;humidity
18697;BME280;22617;43.690;27.956;2023-03-04T00:01:36;98947.56;;;5.70;94.74
18697;BME280;22617;43.690;27.956;2023-03-04T00:06:39;98954.50;;;5.74;94.43
18697;BME280;22617;43.690;27.956;2023-03-04T00:11:43;98954.34;;;5.63;94.34
18697;BME280;22617;43.690;27.956;2023-03-04T00:16:48;98959.53;;;5.65;94.90
18697;BME280;22617;43.690;27.956;2023-03-04T00:21:51;98946.63;;;5.66;95.02
18697;BME280;22617;43.690;27.956;2023-03-04T00:26:55;98958.53;;;5.57;94.72
18697;BME280;22617;43.690;27.956;2023-03-04T00:32:00;98952.53;;;5.58;94.65
18697;BME280;22617;43.690;27.956;2023-03-04T00:37:03;98948.19;;;5.57;94.48
18697;BME280;22617;43.690;27.956;2023-03-04T00:42:07;98939.63;;;5.59;94.33
18697;BME280;22617;43.690;27.956;2023-03-04T00:47:14;98942.09;;;5.50;94.19
18697;BME280;22617;43.690;27.956;2023-03-04T00:52:17;98932.66;;;5.54;94.32
18697;BME280;22617;43.690;27.956;2023-03-04T00:57:21;98931.81;;;5.56;94.44
18697;BME280;22617;43.690;27.956;2023-03-04T01:02:26;98932.69;;;5.57;94.66
18697;BME280;22617;43.690;27.956;2023-03-04T01:07:29;98930.09;;;5.55;94.99
18697;BME280;22617;43.690;27.956;2023-03-04T01:12:35;98922.34;;;5.57;94.75
18697;BME280;22617;43.690;27.956;2023-03-04T01:17:40;98918.91;;;5.55;95.06
18697;BME280;22617;43.690;27.956;2023-03-04T01:22:43;98930.88;;;5.50;94.91
18697;BME280;22617;43.690;27.956;2023-03-04T01:27:48;98923.94;;;5.47;94.62
18697;BME280;22617;43.690;27.956;2023-03-04T01:32:55;98924.00;;;5.50;94.41
18697;BME280;22617;43.690;27.956;2023-03-04T01:37:58;98935.28;;;5.55;94.57
18697;BME280;22617;43.690;27.956;2023-03-04T01:43:02;98931.00;;;5.59;94.35
18697;BME280;22617;43.690;27.956;2023-03-04T01:48:08;98939.59;;;5.58;94.20
18697;BME280;22617;43.690;27.956;2023-03-04T01:53:17;98932.69;;;5.57;94.71
18697;BME280;22617;43.690;27.956;2023-03-04T01:58:30;98935.19;;;5.49;94.00
18697;BME280;22617;43.690;27.956;2023-03-04T02:03:35;98920.44;;;5.44;94.18
18697;BME280;22617;43.690;27.956;2023-03-04T02:08:39;98907.56;;;5.45;94.07
18697;BME280;22617;43.690;27.956;2023-03-04T02:13:42;98904.06;;;5.43;93.40
18697;BME280;22617;43.690;27.956;2023-03-04T02:18:47;98908.25;;;5.35;93.40
18697;BME280;22617;43.690;27.956;2023-03-04T02:23:57;98909.88;;;5.28;93.16
18697;BME280;22617;43.690;27.956;2023-03-04T02:29:04;98909.09;;;5.34;92.70
18697;BME280;22617;43.690;27.956;2023-03-04T02:34:13;98916.88;;;5.37;92.91
18697;BME280;22617;43.690;27.956;2023-03-04T02:39:22;98911.81;;;5.42;92.85
18697;BME280;22617;43.690;27.956;2023-03-04T02:44:30;98909.88;;;5.27;92.70
18697;BME280;22617;43.690;27.956;2023-03-04T02:49:37;98908.94;;;5.23;92.93
18697;BME280;22617;43.690;27.956;2023-03-04T02:54:41;98906.31;;;5.20;92.72
18697;BME280;22617;43.690;27.956;2023-03-04T02:59:46;98909.00;;;5.26;93.49
18697;BME280;22617;43.690;27.956;2023-03-04T03:04:54;98898.53;;;5.19;93.43
18697;BME280;22617;43.690;27.956;2023-03-04T03:10:00;98899.47;;;5.22;93.37
18697;BME280;22617;43.690;27.956;2023-03-04T03:15:07;98901.03;;;5.14;93.33
18697;BME280;22617;43.690;27.956;2023-03-04T03:20:13;98890.72;;;5.14;93.27
18697;BME280;22617;43.690;27.956;2023-03-04T03:25:17;98890.72;;;5.14;93.38
18697;BME280;22617;43.690;27.956;2023-03-04T03:30:22;98898.38;;;5.08;93.45
18697;BME280;22617;43.690;27.956;2023-03-04T03:35:25;98900.97;;;5.08;93.34
18697;BME280;22617;43.690;27.956;2023-03-04T03:40:30;98897.44;;;5.05;93.09
18697;BME280;22617;43.690;27.956;2023-03-04T03:45:35;98901.81;;;5.07;92.95
18697;BME280;22617;43.690;27.956;2023-03-04T03:50:39;98905.19;;;5.05;92.79
18697;BME280;22617;43.690;27.956;2023-03-04T03:55:42;98895.59;;;4.96;92.88
18697;BME280;22617;43.690;27.956;2023-03-04T04:00:47;98896.53;;;5.01;92.84
18697;BME280;22617;43.690;27.956;2023-03-04T04:05:50;98896.56;;;5.04;92.82
18697;BME280;22617;43.690;27.956;2023-03-04T04:10:54;98892.34;;;5.08;92.95
18697;BME280;22617;43.690;27.956;2023-03-04T04:15:59;98874.13;;;4.99;92.55
18697;BME280;22617;43.690;27.956;2023-03-04T04:21:03;98884.44;;;4.99;92.86
18697;BME280;22617;43.690;27.956;2023-03-04T04:26:06;98893.81;;;4.92;93.39
18697;BME280;22617;43.690;27.956;2023-03-04T04:31:11;98893.03;;;4.99;93.08
18697;BME280;22617;43.690;27.956;2023-03-04T04:36:15;98891.41;;;5.03;93.52
18697;BME280;22617;43.690;27.956;2023-03-04T04:41:21;98897.38;;;5.00;93.58
18697;BME280;22617;43.690;27.956;2023-03-04T04:46:26;98895.69;;;5.02;93.71
18697;BME280;22617;43.690;27.956;2023-03-04T04:51:31;98911.22;;;5.05;93.82
18697;BME280;22617;43.690;27.956;2023-03-04T04:56:34;98914.72;;;5.09;93.72
18697;BME280;22617;43.690;27.956;2023-03-04T05:01:39;98924.19;;;5.07;93.15
18697;BME280;22617;43.690;27.956;2023-03-04T05:06:43;98925.03;;;5.07;93.12
18697;BME280;22617;43.690;27.956;2023-03-04T05:11:46;98938.03;;;5.12;93.68
18697;BME280;22617;43.690;27.956;2023-03-04T05:16:51;98951.81;;;5.14;93.13
18697;BME280;22617;43.690;27.956;2023-03-04T05:21:55;98956.19;;;5.16;93.36
18697;BME280;22617;43.690;27.956;2023-03-04T05:26:59;98964.66;;;5.09;92.94
18697;BME280;22617;43.690;27.956;2023-03-04T05:32:04;98968.97;;;5.07;93.24
18697;BME280;22617;43.690;27.956;2023-03-04T05:37:07;98964.78;;;5.15;93.52
18697;BME280;22617;43.690;27.956;2023-03-04T05:42:10;98975.16;;;5.18;93.62
18697;BME280;22617;43.690;27.956;2023-03-04T05:47:15;98968.34;;;5.23;93.42
18697;BME280;22617;43.690;27.956;2023-03-04T05:52:19;98974.53;;;5.33;93.62
18697;BME280;22617;43.690;27.956;2023-03-04T05:57:22;98978.91;;;5.36;93.19
18697;BME280;22617;43.690;27.956;2023-03-04T06:02:27;98983.09;;;5.29;93.01
18697;BME280;22617;43.690;27.956;2023-03-04T06:07:31;98991.84;;;5.39;93.58
18697;BME280;22617;43.690;27.956;2023-03-04T06:12:34;98984.22;;;5.45;93.11
18697;BME280;22617;43.690;27.956;2023-03-04T06:17:40;98983.47;;;5.53;93.05
18697;BME280;22617;43.690;27.956;2023-03-04T06:22:44;98982.59;;;5.53;92.83
18697;BME280;22617;43.690;27.956;2023-03-04T06:27:47;98981.09;;;5.65;93.16
18697;BME280;22617;43.690;27.956;2023-03-04T06:32:53;98991.56;;;5.76;93.15
18697;BME280;22617;43.690;27.956;2023-03-04T06:37:56;98984.06;;;5.90;92.58
18697;BME280;22617;43.690;27.956;2023-03-04T06:43:00;98981.63;;;5.99;91.54
18697;BME280;22617;43.690;27.956;2023-03-04T06:48:05;98986.09;;;6.12;91.54
18697;BME280;22617;43.690;27.956;2023-03-04T06:53:08;98988.72;;;6.13;91.34
18697;BME280;22617;43.690;27.956;2023-03-04T06:58:12;98986.31;;;6.30;90.75
18697;BME280;22617;43.690;27.956;2023-03-04T07:03:17;98974.41;;;6.41;90.59
18697;BME280;22617;43.690;27.956;2023-03-04T07:08:21;98965.88;;;6.53;90.09
18697;BME280;22617;43.690;27.956;2023-03-04T07:13:24;98962.47;;;6.57;89.69
18697;BME280;22617;43.690;27.956;2023-03-04T07:18:29;98941.31;;;6.97;90.08
18697;BME280;22617;43.690;27.956;2023-03-04T07:23:34;98945.78;;;7.12;88.98
18697;BME280;22617;43.690;27.956;2023-03-04T07:28:38;98939.78;;;7.18;87.84
18697;BME280;22617;43.690;27.956;2023-03-04T07:33:45;98937.16;;;7.13;87.29
18697;BME280;22617;43.690;27.956;2023-03-04T07:38:49;98937.06;;;7.06;87.37
18697;BME280;22617;43.690;27.956;2023-03-04T07:43:56;98946.59;;;7.08;87.37
18697;BME280;22617;43.690;27.956;2023-03-04T07:49:01;98934.72;;;7.34;87.66
18697;BME280;22617;43.690;27.956;2023-03-04T07:54:05;98929.69;;;7.54;87.17
18697;BME280;22617;43.690;27.956;2023-03-04T07:59:08;98929.59;;;7.42;85.48
18697;BME280;22617;43.690;27.956;2023-03-04T08:04:13;98924.50;;;7.54;85.93
18697;BME280;22617;43.690;27.956;2023-03-04T08:09:16;98926.25;;;7.60;84.89
18697;BME280;22617;43.690;27.956;2023-03-04T08:14:20;98916.78;;;7.65;84.63
18697;BME280;22617;43.690;27.956;2023-03-04T08:19:25;98922.91;;;7.74;84.10
18697;BME280;22617;43.690;27.956;2023-03-04T08:24:28;98922.28;;;8.27;84.74
18697;BME280;22617;43.690;27.956;2023-03-04T08:29:32;98909.44;;;8.57;83.47
18697;BME280;22617;43.690;27.956;2023-03-04T08:34:38;98905.13;;;8.71;81.35
18697;BME280;22617;43.690;27.956;2023-03-04T08:39:42;98905.13;;;8.68;80.82
18697;BME280;22617;43.690;27.956;2023-03-04T08:44:46;98898.22;;;8.98;80.99
18697;BME280;22617;43.690;27.956;2023-03-04T08:49:51;98894.72;;;9.56;79.39
18697;BME280;22617;43.690;27.956;2023-03-04T08:54:55;98890.41;;;9.46;77.25
18697;BME280;22617;43.690;27.956;2023-03-04T08:59:58;98886.09;;;9.29;77.36
18697;BME280;22617;43.690;27.956;2023-03-04T09:05:05;98893.00;;;9.46;77.69
18697;BME280;22617;43.690;27.956;2023-03-04T09:10:09;98886.91;;;9.66;77.93
18697;BME280;22617;43.690;27.956;2023-03-04T09:15:13;98883.34;;;10.00;76.03
18697;BME280;22617;43.690;27.956;2023-03-04T09:20:19;98868.47;;;10.28;76.32
18697;BME280;22617;43.690;27.956;2023-03-04T09:25:24;98878.97;;;10.16;77.82
18697;BME280;22617;43.690;27.956;2023-03-04T09:30:27;98860.59;;;10.44;76.82
18697;BME280;22617;43.690;27.956;2023-03-04T09:35:32;98850.94;;;10.57;76.48
18697;BME280;22617;43.690;27.956;2023-03-04T09:40:39;98844.09;;;10.44;76.27
18697;BME280;22617;43.690;27.956;2023-03-04T09:45:47;98837.81;;;11.67;74.94
18697;BME280;22617;43.690;27.956;2023-03-04T09:51:05;98829.63;;;11.13;73.35
18697;BME280;22617;43.690;27.956;2023-03-04T09:56:11;98822.09;;;11.73;73.91
18697;BME280;22617;43.690;27.956;2023-03-04T10:01:20;98809.91;;;11.73;72.91
18697;BME280;22617;43.690;27.956;2023-03-04T10:06:30;98816.44;;;12.69;71.49
18697;BME280;22617;43.690;27.956;2023-03-04T10:11:38;98802.19;;;13.83;69.50
18697;BME280;22617;43.690;27.956;2023-03-04T10:16:45;98804.34;;;12.62;69.95
18697;BME280;22617;43.690;27.956;2023-03-04T10:21:52;98805.22;;;13.18;70.58
18697;BME280;22617;43.690;27.956;2023-03-04T10:27:00;98792.81;;;12.75;67.88
18697;BME280;22617;43.690;27.956;2023-03-04T10:32:11;98784.66;;;12.40;68.48
18697;BME280;22617;43.690;27.956;2023-03-04T10:37:17;98780.22;;;12.45;68.85
18697;BME280;22617;43.690;27.956;2023-03-04T10:42:27;98775.34;;;12.22;69.32
18697;BME280;22617;43.690;27.956;2023-03-04T10:47:38;98767.41;;;12.83;68.27
18697;BME280;22617;43.690;27.956;2023-03-04T10:52:48;98756.72;;;12.95;66.98
18697;BME280;22617;43.690;27.956;2023-03-04T10:57:55;98747.59;;;12.68;68.64
18697;BME280;22617;43.690;27.956;2023-03-04T11:03:22;98742.34;;;13.19;67.54
18697;BME280;22617;43.690;27.956;2023-03-04T11:08:31;98736.88;;;12.32;68.48
18697;BME280;22617;43.690;27.956;2023-03-04T11:13:35;98722.13;;;12.28;68.75
18697;BME280;22617;43.690;27.956;2023-03-04T11:18:41;98718.38;;;12.44;69.81
18697;BME280;22617;43.690;27.956;2023-03-04T11:23:49;98701.13;;;11.74;69.42
18697;BME280;22617;43.690;27.956;2023-03-04T11:28:58;98696.66;;;11.80;68.93
18697;BME280;22617;43.690;27.956;2023-03-04T11:34:07;98681.59;;;11.99;69.44
18697;BME280;22617;43.690;27.956;2023-03-04T11:39:21;98680.16;;;13.75;66.39
18697;BME280;22617;43.690;27.956;2023-03-04T11:44:26;98665.97;;;14.20;65.33
18697;BME280;22617;43.690;27.956;2023-03-04T11:55:17;98656.16;;;13.93;66.52
18697;BME280;22617;43.690;27.956;2023-03-04T12:00:33;98650.16;;;15.25;63.13
18697;BME280;22617;43.690;27.956;2023-03-04T12:05:45;98641.13;;;15.03;62.85
18697;BME280;22617;43.690;27.956;2023-03-04T12:11:00;98649.13;;;13.95;65.43
18697;BME280;22617;43.690;27.956;2023-03-04T12:16:18;98640.19;;;13.65;66.63
18697;BME280;22617;43.690;27.956;2023-03-04T12:21:38;98644.16;;;13.43;66.58
18697;BME280;22617;43.690;27.956;2023-03-04T12:26:50;98633.72;;;12.98;67.50
18697;BME280;22617;43.690;27.956;2023-03-04T12:32:00;98639.09;;;12.43;67.90
18697;BME280;22617;43.690;27.956;2023-03-04T12:37:21;98633.22;;;12.32;68.61
18697;BME280;22617;43.690;27.956;2023-03-04T12:42:36;98635.34;;;12.07;70.10
18697;BME280;22617;43.690;27.956;2023-03-04T12:47:51;98632.81;;;12.01;70.84
18697;BME280;22617;43.690;27.956;2023-03-04T12:53:08;98631.78;;;12.13;70.81
18697;BME280;22617;43.690;27.956;2023-03-04T12:58:19;98619.59;;;12.12;71.50
18697;BME280;22617;43.690;27.956;2023-03-04T13:03:30;98609.47;;;11.94;70.28
18697;BME280;22617;43.690;27.956;2023-03-04T13:08:50;98608.75;;;11.84;71.68
18697;BME280;22617;43.690;27.956;2023-03-04T13:14:04;98609.63;;;11.80;71.18
18697;BME280;22617;43.690;27.956;2023-03-04T13:24:46;98596.03;;;11.60;70.95
18697;BME280;22617;43.690;27.956;2023-03-04T13:29:53;98592.59;;;11.55;71.50
18697;BME280;22617;43.690;27.956;2023-03-04T13:34:56;98583.94;;;11.53;72.17
18697;BME280;22617;43.690;27.956;2023-03-04T13:40:23;98580.59;;;11.43;72.15
18697;BME280;22617;43.690;27.956;2023-03-04T13:45:35;98576.91;;;11.56;71.55
18697;BME280;22617;43.690;27.956;2023-03-04T13:50:44;98566.72;;;11.40;72.35
18697;BME280;22617;43.690;27.956;2023-03-04T13:56:23;98561.44;;;11.46;72.82
18697;BME280;22617;43.690;27.956;2023-03-04T14:01:30;98554.63;;;11.34;73.01
18697;BME280;22617;43.690;27.956;2023-03-04T14:06:39;98564.19;;;11.36;73.27
18697;BME280;22617;43.690;27.956;2023-03-04T14:11:43;98546.81;;;11.34;73.17
18697;BME280;22617;43.690;27.956;2023-03-04T14:16:50;98546.88;;;11.29;72.97
18697;BME280;22617;43.690;27.956;2023-03-04T14:21:56;98547.66;;;11.34;73.12
18697;BME280;22617;43.690;27.956;2023-03-04T14:27:09;98531.47;;;11.11;73.37
18697;BME280;22617;43.690;27.956;2023-03-04T14:32:15;98535.91;;;11.06;72.26
18697;BME280;22617;43.690;27.956;2023-03-04T14:37:20;98522.97;;;10.97;72.47
18697;BME280;22617;43.690;27.956;2023-03-04T14:42:32;98524.75;;;10.95;72.91
18697;BME280;22617;43.690;27.956;2023-03-04T14:47:40;98522.03;;;11.03;72.95
18697;BME280;22617;43.690;27.956;2023-03-04T14:52:48;98515.03;;;11.08;72.42
18697;BME280;22617;43.690;27.956;2023-03-04T14:58:04;98511.44;;;11.15;72.14
18697;BME280;22617;43.690;27.956;2023-03-04T15:03:19;98503.66;;;11.10;72.11
18697;BME280;22617;43.690;27.956;2023-03-04T15:08:25;98501.19;;;11.01;72.02
18697;BME280;22617;43.690;27.956;2023-03-04T15:13:39;98507.50;;;10.85;72.62
18697;BME280;22617;43.690;27.956;2023-03-04T15:18:55;98502.41;;;10.76;73.99
18697;BME280;22617;43.690;27.956;2023-03-04T15:23:59;98501.66;;;10.65;73.84
18697;BME280;22617;43.690;27.956;2023-03-04T15:29:12;98502.84;;;10.39;75.10
18697;BME280;22617;43.690;27.956;2023-03-04T15:34:19;98482.09;;;10.32;75.26
18697;BME280;22617;43.690;27.956;2023-03-04T15:39:23;98484.09;;;10.07;75.30
18697;BME280;22617;43.690;27.956;2023-03-04T15:44:28;98484.91;;;10.07;75.17
18697;BME280;22617;43.690;27.956;2023-03-04T15:49:33;98487.50;;;10.09;74.35
18697;BME280;22617;43.690;27.956;2023-03-04T15:54:37;98480.56;;;10.11;74.91
18697;BME280;22617;43.690;27.956;2023-03-04T15:59:40;98479.03;;;9.92;74.50
18697;BME280;22617;43.690;27.956;2023-03-04T16:04:45;98480.81;;;9.84;75.00
18697;BME280;22617;43.690;27.956;2023-03-04T16:09:53;98480.13;;;9.67;75.01
18697;BME280;22617;43.690;27.956;2023-03-04T16:14:58;98478.47;;;9.58;75.49
18697;BME280;22617;43.690;27.956;2023-03-04T16:20:03;98486.53;;;9.25;76.55
18697;BME280;22617;43.690;27.956;2023-03-04T16:25:09;98489.13;;;9.22;76.24
18697;BME280;22617;43.690;27.956;2023-03-04T16:30:16;98484.97;;;9.01;76.33
18697;BME280;22617;43.690;27.956;2023-03-04T16:35:22;98485.84;;;9.01;76.60
18697;BME280;22617;43.690;27.956;2023-03-04T16:40:29;98478.97;;;8.88;76.43
18697;BME280;22617;43.690;27.956;2023-03-04T16:45:33;98485.09;;;8.73;77.46
18697;BME280;22617;43.690;27.956;2023-03-04T16:50:40;98483.38;;;8.69;77.30
18697;BME280;22617;43.690;27.956;2023-03-04T16:55:46;98478.28;;;8.51;77.25
18697;BME280;22617;43.690;27.956;2023-03-04T17:00:50;98487.81;;;8.51;77.22
18697;BME280;22617;43.690;27.956;2023-03-04T17:05:55;98482.69;;;8.32;77.67
18697;BME280;22617;43.690;27.956;2023-03-04T17:10:59;98486.13;;;8.25;77.35
18697;BME280;22617;43.690;27.956;2023-03-04T17:16:03;98486.16;;;8.21;77.52
18697;BME280;22617;43.690;27.956;2023-03-04T17:21:12;98481.84;;;8.11;77.69
18697;BME280;22617;43.690;27.956;2023-03-04T17:26:16;98489.66;;;8.02;77.97
18697;BME280;22617;43.690;27.956;2023-03-04T17:31:22;98490.56;;;7.95;77.76
18697;BME280;22617;43.690;27.956;2023-03-04T17:36:27;98495.72;;;7.92;77.82
18697;BME280;22617;43.690;27.956;2023-03-04T17:41:31;98491.44;;;7.75;78.21
18697;BME280;22617;43.690;27.956;2023-03-04T17:46:39;98494.91;;;7.79;77.64
18697;BME280;22617;43.690;27.956;2023-03-04T17:51:44;98493.19;;;7.64;78.11
18697;BME280;22617;43.690;27.956;2023-03-04T17:56:48;98497.50;;;7.42;79.21
18697;BME280;22617;43.690;27.956;2023-03-04T18:01:52;98492.31;;;7.56;79.38
18697;BME280;22617;43.690;27.956;2023-03-04T18:06:58;98493.19;;;7.35;80.25
18697;BME280;22617;43.690;27.956;2023-03-04T18:12:01;98499.22;;;7.21;81.75
18697;BME280;22617;43.690;27.956;2023-03-04T18:17:05;98491.41;;;7.15;83.08
18697;BME280;22617;43.690;27.956;2023-03-04T18:22:10;98494.91;;;7.14;84.24
18697;BME280;22617;43.690;27.956;2023-03-04T18:27:14;98500.09;;;7.32;84.31
18697;BME280;22617;43.690;27.956;2023-03-04T18:32:18;98491.44;;;7.40;84.95
18697;BME280;22617;43.690;27.956;2023-03-04T18:37:23;98485.41;;;7.37;85.27
18697;BME280;22617;43.690;27.956;2023-03-04T18:42:26;98493.19;;;7.41;85.67
18697;BME280;22617;43.690;27.956;2023-03-04T18:47:31;98483.69;;;7.47;85.42
18697;BME280;22617;43.690;27.956;2023-03-04T18:52:36;98487.13;;;7.53;85.23
18697;BME280;22617;43.690;27.956;2023-03-04T18:57:41;98492.31;;;7.59;85.68
18697;BME280;22617;43.690;27.956;2023-03-04T19:02:49;98484.56;;;7.62;85.93
18697;BME280;22617;43.690;27.956;2023-03-04T19:07:56;98488.84;;;7.63;85.90
18697;BME280;22617;43.690;27.956;2023-03-04T19:12:59;98493.16;;;7.63;85.41
18697;BME280;22617;43.690;27.956;2023-03-04T19:18:07;98490.59;;;7.70;85.83
18697;BME280;22617;43.690;27.956;2023-03-04T19:23:16;98494.03;;;7.75;85.54
18697;BME280;22617;43.690;27.956;2023-03-04T19:28:19;98492.31;;;7.47;85.88
18697;BME280;22617;43.690;27.956;2023-03-04T19:33:23;98494.06;;;7.47;85.66
18697;BME280;22617;43.690;27.956;2023-03-04T19:38:30;98489.75;;;7.33;85.89
18697;BME280;22617;43.690;27.956;2023-03-04T19:43:35;98490.56;;;7.25;86.64
18697;BME280;22617;43.690;27.956;2023-03-04T19:48:40;98499.22;;;7.24;86.77
18697;BME280;22617;43.690;27.956;2023-03-04T19:53:50;98497.50;;;7.14;86.57
18697;BME280;22617;43.690;27.956;2023-03-04T19:58:54;98487.97;;;7.07;86.94
18697;BME280;22617;43.690;27.956;2023-03-04T20:04:00;98492.28;;;7.11;86.72
18697;BME280;22617;43.690;27.956;2023-03-04T20:09:06;98493.16;;;7.07;86.27
18697;BME280;22617;43.690;27.956;2023-03-04T20:14:11;98484.50;;;6.98;86.35
18697;BME280;22617;43.690;27.956;2023-03-04T20:19:15;98479.28;;;6.86;86.93
18697;BME280;22617;43.690;27.956;2023-03-04T20:24:21;98480.16;;;6.79;86.85
18697;BME280;22617;43.690;27.956;2023-03-04T20:29:24;98483.56;;;6.72;86.59
18697;BME280;22617;43.690;27.956;2023-03-04T20:34:29;98472.34;;;6.76;86.43
18697;BME280;22617;43.690;27.956;2023-03-04T20:39:34;98473.25;;;6.75;86.13
18697;BME280;22617;43.690;27.956;2023-03-04T20:44:43;98461.94;;;6.53;85.85
18697;BME280;22617;43.690;27.956;2023-03-04T20:49:47;98457.63;;;6.51;85.85
18697;BME280;22617;43.690;27.956;2023-03-04T20:54:52;98456.72;;;6.37;86.40
18697;BME280;22617;43.690;27.956;2023-03-04T20:59:57;98450.69;;;6.45;86.11
18697;BME280;22617;43.690;27.956;2023-03-04T21:05:00;98445.53;;;6.42;85.48
18697;BME280;22617;43.690;27.956;2023-03-04T21:10:06;98451.47;;;6.22;85.35
18697;BME280;22617;43.690;27.956;2023-03-04T21:15:10;98450.59;;;6.24;86.06
18697;BME280;22617;43.690;27.956;2023-03-04T21:20:14;98450.59;;;6.20;85.29
18697;BME280;22617;43.690;27.956;2023-03-04T21:25:19;98444.56;;;6.19;85.95
18697;BME280;22617;43.690;27.956;2023-03-04T21:30:24;98441.13;;;6.25;85.62
18697;BME280;22617;43.690;27.956;2023-03-04T21:35:27;98432.50;;;6.24;85.77
18697;BME280;22617;43.690;27.956;2023-03-04T21:40:32;98424.78;;;6.35;85.05
18697;BME280;22617;43.690;27.956;2023-03-04T21:45:36;98425.59;;;6.20;84.76
18697;BME280;22617;43.690;27.956;2023-03-04T21:50:40;98414.38;;;6.21;84.88
18697;BME280;22617;43.690;27.956;2023-03-04T21:55:44;98416.09;;;6.21;85.01
18697;BME280;22617;43.690;27.956;2023-03-04T22:00:48;98411.78;;;6.09;84.77
18697;BME280;22617;43.690;27.956;2023-03-04T22:05:52;98405.69;;;6.02;85.21
18697;BME280;22617;43.690;27.956;2023-03-04T22:11:03;98403.13;;;6.04;85.81
18697;BME280;22617;43.690;27.956;2023-03-04T22:16:08;98400.53;;;6.02;84.76
18697;BME280;22617;43.690;27.956;2023-03-04T22:21:13;98392.72;;;5.92;85.19
18697;BME280;22617;43.690;27.956;2023-03-04T22:26:20;98397.00;;;5.91;84.54
18697;BME280;22617;43.690;27.956;2023-03-04T22:31:29;98393.56;;;5.92;84.61
18697;BME280;22617;43.690;27.956;2023-03-04T22:36:35;98383.16;;;5.80;85.57
18697;BME280;22617;43.690;27.956;2023-03-04T22:41:40;98381.44;;;5.85;85.73
18697;BME280;22617;43.690;27.956;2023-03-04T22:46:44;98388.28;;;5.77;85.59
18697;BME280;22617;43.690;27.956;2023-03-04T22:51:47;98372.69;;;5.62;85.61
18697;BME280;22617;43.690;27.956;2023-03-04T22:56:52;98383.16;;;5.80;85.16
18697;BME280;22617;43.690;27.956;2023-03-04T23:01:56;98385.66;;;5.63;85.03
18697;BME280;22617;43.690;27.956;2023-03-04T23:06:59;98379.56;;;5.51;85.90
18697;BME280;22617;43.690;27.956;2023-03-04T23:12:05;98377.03;;;5.63;86.62
18697;BME280;22617;43.690;27.956;2023-03-04T23:17:09;98376.19;;;5.65;85.82
18697;BME280;22617;43.690;27.956;2023-03-04T23:22:12;98370.09;;;5.54;85.79
18697;BME280;22617;43.690;27.956;2023-03-04T23:27:17;98365.72;;;5.47;85.91
18697;BME280;22617;43.690;27.956;2023-03-04T23:32:21;98369.16;;;5.45;85.84
18697;BME280;22617;43.690;27.956;2023-03-04T23:37:25;98369.25;;;5.58;85.48
18697;BME280;22617;43.690;27.956;2023-03-04T23:42:30;98370.88;;;5.43;85.26
18697;BME280;22617;43.690;27.956;2023-03-04T23:47:33;98376.03;;;5.37;85.83
18697;BME280;22617;43.690;27.956;2023-03-04T23:52:37;98373.41;;;5.35;85.83
18697;BME280;22617;43.690;27.956;2023-03-04T23:57:42;98370.91;;;5.46;86.26
